createdAt,value
2023-05-05T00:01:02.363Z,16.40
2023-05-05T00:03:29.628Z,16.40
2023-05-05T00:05:56.733Z,16.30
2023-05-05T00:08:23.860Z,16.40
2023-05-05T00:10:53.361Z,16.30
2023-05-05T00:13:21.557Z,16.30
2023-05-05T00:15:50.884Z,16.30
2023-05-05T00:18:19.258Z,16.30
2023-05-05T00:20:47.381Z,16.20
2023-05-05T00:23:19.611Z,16.20
2023-05-05T00:25:46.787Z,16.20
2023-05-05T00:28:16.193Z,16.20
2023-05-05T00:30:43.071Z,16.20
2023-05-05T00:33:10.081Z,16.30
2023-05-05T00:35:36.995Z,16.30
2023-05-05T00:38:05.082Z,16.30
2023-05-05T00:40:32.000Z,16.30
2023-05-05T00:42:59.667Z,16.20
2023-05-05T00:45:27.084Z,16.30
2023-05-05T00:47:59.651Z,16.40
2023-05-05T00:50:30.774Z,16.50
2023-05-05T00:53:06.187Z,16.60
2023-05-05T00:55:34.889Z,16.60
2023-05-05T00:58:05.574Z,16.60
2023-05-05T01:00:34.372Z,16.70
2023-05-05T01:03:01.421Z,16.70
2023-05-05T01:05:47.787Z,16.70
2023-05-05T01:08:29.137Z,16.70
2023-05-05T01:11:10.683Z,16.70
2023-05-05T01:13:48.269Z,16.70
2023-05-05T01:16:20.775Z,16.70
2023-05-05T01:19:40.472Z,16.70
2023-05-05T01:22:13.634Z,16.70
2023-05-05T01:25:05.235Z,16.70
2023-05-05T01:28:02.854Z,16.60
2023-05-05T01:30:56.210Z,16.60
2023-05-05T01:33:31.602Z,16.60
2023-05-05T01:36:10.425Z,16.60
2023-05-05T01:38:43.202Z,16.60
2023-05-05T01:41:28.114Z,16.60
2023-05-05T01:44:01.076Z,16.60
2023-05-05T01:46:28.943Z,16.50
2023-05-05T01:48:58.586Z,16.50
2023-05-05T01:51:27.914Z,16.50
2023-05-05T01:53:59.956Z,16.50
2023-05-05T01:56:28.709Z,16.50
2023-05-05T01:58:57.493Z,16.50
2023-05-05T02:01:27.595Z,16.60
2023-05-05T02:03:57.300Z,16.60
2023-05-05T02:06:28.155Z,16.50
2023-05-05T02:08:58.273Z,16.50
2023-05-05T02:11:27.967Z,16.40
2023-05-05T02:13:56.232Z,16.30
2023-05-05T02:16:24.745Z,16.20
2023-05-05T02:18:54.334Z,16.10
2023-05-05T02:21:21.393Z,16.10
2023-05-05T02:23:51.621Z,16.00
2023-05-05T02:26:22.345Z,15.90
2023-05-05T02:29:07.486Z,15.80
2023-05-05T02:31:45.767Z,15.70
2023-05-05T02:34:22.354Z,15.60
2023-05-05T02:36:54.425Z,15.60
2023-05-05T02:39:40.361Z,15.60
2023-05-05T02:42:18.338Z,15.50
2023-05-05T02:44:47.394Z,15.50
2023-05-05T02:47:15.084Z,15.50
2023-05-05T02:49:43.272Z,15.50
2023-05-05T02:52:10.238Z,15.40
2023-05-05T02:54:38.866Z,15.20
2023-05-05T02:57:21.105Z,15.30
2023-05-05T03:00:18.929Z,15.20
2023-05-05T03:03:39.715Z,15.30
2023-05-05T03:06:19.668Z,15.20
2023-05-05T03:08:52.808Z,15.20
2023-05-05T03:11:31.807Z,15.20
2023-05-05T03:14:11.517Z,15.20
2023-05-05T03:16:42.675Z,15.10
2023-05-05T03:19:14.301Z,15.00
2023-05-05T03:21:42.543Z,15.00
2023-05-05T03:24:18.054Z,15.00
2023-05-05T03:26:51.193Z,14.90
2023-05-05T03:29:21.655Z,14.90
2023-05-05T03:31:49.261Z,15.00
2023-05-05T03:34:17.008Z,15.00
2023-05-05T03:36:46.918Z,14.90
2023-05-05T03:39:15.581Z,14.90
2023-05-05T03:41:42.348Z,14.80
2023-05-05T03:44:10.877Z,14.90
2023-05-05T03:46:37.877Z,14.80
2023-05-05T03:49:08.013Z,14.80
2023-05-05T03:51:34.840Z,14.80
2023-05-05T03:54:02.816Z,14.80
2023-05-05T03:56:29.670Z,14.70
2023-05-05T03:58:56.458Z,14.70
2023-05-05T04:01:23.812Z,14.70
2023-05-05T04:03:51.275Z,14.70
2023-05-05T04:06:18.160Z,14.70
2023-05-05T04:08:44.969Z,14.60
2023-05-05T04:11:12.121Z,14.60
2023-05-05T04:13:39.403Z,14.60
2023-05-05T04:16:08.659Z,14.60
2023-05-05T04:18:37.316Z,14.60
2023-05-05T04:21:04.848Z,14.60
2023-05-05T04:23:31.759Z,14.60
2023-05-05T04:25:59.296Z,14.60
2023-05-05T04:28:27.212Z,14.60
2023-05-05T04:30:54.017Z,14.60
2023-05-05T04:33:20.997Z,14.60
2023-05-05T04:35:49.465Z,14.60
2023-05-05T04:38:16.340Z,14.60
2023-05-05T04:40:43.604Z,14.70
2023-05-05T04:43:11.468Z,14.60
2023-05-05T04:45:38.677Z,14.60
2023-05-05T04:48:06.303Z,14.60
2023-05-05T04:50:33.177Z,14.60
2023-05-05T04:53:00.111Z,14.60
2023-05-05T04:55:28.396Z,14.70
2023-05-05T04:57:55.404Z,14.70
2023-05-05T05:00:24.008Z,14.70
2023-05-05T05:02:52.344Z,14.80
2023-05-05T05:05:19.476Z,14.80
2023-05-05T05:07:46.246Z,14.80
2023-05-05T05:10:13.106Z,14.90
2023-05-05T05:12:40.019Z,14.90
2023-05-05T05:15:08.020Z,14.90
2023-05-05T05:17:34.850Z,15.00
2023-05-05T05:20:04.688Z,14.90
2023-05-05T05:22:32.574Z,15.00
2023-05-05T05:24:59.429Z,15.00
2023-05-05T05:27:26.360Z,15.10
2023-05-05T05:29:54.574Z,15.10
2023-05-05T05:32:21.581Z,15.10
2023-05-05T05:34:49.014Z,15.10
2023-05-05T05:37:16.630Z,15.20
2023-05-05T05:39:43.796Z,15.30
2023-05-05T05:42:11.282Z,15.20
2023-05-05T05:44:38.077Z,15.30
2023-05-05T05:47:05.036Z,15.50
2023-05-05T05:49:32.533Z,15.60
2023-05-05T05:51:59.336Z,15.80
2023-05-05T05:54:26.402Z,16.80
2023-05-05T05:56:53.192Z,17.80
2023-05-05T05:59:21.061Z,18.40
2023-05-05T06:01:48.255Z,19.00
2023-05-05T06:04:15.301Z,19.20
2023-05-05T06:06:42.259Z,19.60
2023-05-05T06:09:09.080Z,20.00
2023-05-05T06:11:36.974Z,20.30
2023-05-05T06:14:03.972Z,20.70
2023-05-05T06:16:31.345Z,21.30
2023-05-05T06:19:01.190Z,21.70
2023-05-05T06:21:28.079Z,21.60
2023-05-05T06:23:55.108Z,20.90
2023-05-05T06:26:21.876Z,20.20
2023-05-05T06:28:48.631Z,19.70
2023-05-05T06:31:15.548Z,19.70
2023-05-05T06:33:42.429Z,20.10
2023-05-05T06:36:09.442Z,20.50
2023-05-05T06:38:36.376Z,20.30
2023-05-05T06:41:03.326Z,21.00
2023-05-05T06:43:30.106Z,21.90
2023-05-05T06:45:59.912Z,22.40
2023-05-05T06:48:26.811Z,22.30
2023-05-05T06:50:53.619Z,22.00
2023-05-05T06:53:20.426Z,22.00
2023-05-05T06:55:47.792Z,21.70
2023-05-05T06:58:14.850Z,21.60
2023-05-05T07:00:42.150Z,21.50
2023-05-05T07:03:09.299Z,21.00
2023-05-05T07:05:36.708Z,21.00
2023-05-05T07:08:03.689Z,21.40
2023-05-05T07:10:31.839Z,20.90
2023-05-05T07:12:58.734Z,20.90
2023-05-05T07:15:29.345Z,21.50
2023-05-05T07:17:57.574Z,21.40
2023-05-05T07:20:25.071Z,21.40
2023-05-05T07:22:52.031Z,21.40
2023-05-05T07:25:19.123Z,21.10
2023-05-05T07:27:46.011Z,20.90
2023-05-05T07:30:17.245Z,20.60
2023-05-05T07:32:45.768Z,20.60
2023-05-05T07:35:12.967Z,20.90
2023-05-05T07:37:39.880Z,20.70
2023-05-05T07:40:08.003Z,20.50
2023-05-05T07:42:35.144Z,20.80
2023-05-05T07:45:02.058Z,21.20
2023-05-05T07:47:28.908Z,21.20
2023-05-05T07:49:55.818Z,21.10
2023-05-05T07:52:33.197Z,21.10
2023-05-05T07:55:10.451Z,21.20
2023-05-05T07:57:37.576Z,21.20
2023-05-05T08:00:05.661Z,21.30
2023-05-05T08:02:39.322Z,21.60
2023-05-05T08:05:07.408Z,21.80
2023-05-05T08:07:36.416Z,21.90
2023-05-05T08:10:03.389Z,22.20
2023-05-05T08:12:30.266Z,22.00
2023-05-05T08:14:57.073Z,21.70
2023-05-05T08:17:25.776Z,22.00
2023-05-05T08:19:53.096Z,21.90
2023-05-05T08:22:22.179Z,22.20
2023-05-05T08:24:48.992Z,22.20
2023-05-05T08:27:15.780Z,22.20
2023-05-05T08:29:42.573Z,21.90
2023-05-05T08:32:09.333Z,21.90
2023-05-05T08:34:36.168Z,22.40
2023-05-05T08:37:02.980Z,22.80
2023-05-05T08:39:29.796Z,22.50
2023-05-05T08:41:57.490Z,22.40
2023-05-05T08:44:26.790Z,22.30
2023-05-05T08:46:54.985Z,22.10
2023-05-05T08:49:22.735Z,21.90
2023-05-05T08:51:52.238Z,21.60
2023-05-05T08:54:26.070Z,21.30
2023-05-05T08:56:54.090Z,21.20
2023-05-05T08:59:25.093Z,21.10
2023-05-05T09:01:53.708Z,20.90
2023-05-05T09:04:20.743Z,20.70
2023-05-05T09:06:47.837Z,20.80
2023-05-05T09:09:15.089Z,20.80
2023-05-05T09:11:43.685Z,21.10
2023-05-05T09:14:10.588Z,21.30
2023-05-05T09:16:43.412Z,21.20
2023-05-05T09:19:10.411Z,21.10
2023-05-05T09:21:49.650Z,20.90
2023-05-05T09:24:16.524Z,20.80
2023-05-05T09:26:47.851Z,20.80
2023-05-05T09:29:19.845Z,20.80
2023-05-05T09:32:08.194Z,20.90
2023-05-05T09:34:36.140Z,20.90
2023-05-05T09:37:03.267Z,20.90
2023-05-05T09:39:30.059Z,20.80
2023-05-05T09:41:57.160Z,20.60
2023-05-05T09:44:37.778Z,20.40
2023-05-05T09:47:09.379Z,20.40
2023-05-05T09:49:39.388Z,20.10
2023-05-05T09:52:16.360Z,19.40
2023-05-05T09:54:44.263Z,18.80
2023-05-05T09:57:33.899Z,18.50
2023-05-05T10:00:04.081Z,17.60
2023-05-05T10:02:35.454Z,17.30
2023-05-05T10:05:12.846Z,17.20
2023-05-05T10:07:45.427Z,17.20
2023-05-05T10:10:17.855Z,17.20
2023-05-05T10:12:47.475Z,17.30
2023-05-05T10:15:16.609Z,17.20
2023-05-05T10:18:05.118Z,17.40
2023-05-05T10:20:36.158Z,17.30
2023-05-05T10:23:07.961Z,17.30
2023-05-05T10:25:52.231Z,17.10
2023-05-05T10:28:49.412Z,17.00
2023-05-05T10:31:49.832Z,16.90
2023-05-05T10:34:30.606Z,17.00
2023-05-05T10:37:00.452Z,17.00
2023-05-05T10:39:28.792Z,17.10
2023-05-05T10:41:57.710Z,17.10
2023-05-05T10:44:24.812Z,16.90
2023-05-05T10:46:51.908Z,16.90
2023-05-05T10:49:47.493Z,16.70
2023-05-05T10:52:53.789Z,16.80
2023-05-05T10:55:34.912Z,16.90
2023-05-05T10:58:01.733Z,16.90
2023-05-05T11:00:40.354Z,16.80
2023-05-05T11:03:21.302Z,16.80
2023-05-05T11:06:09.214Z,16.80
2023-05-05T11:08:42.632Z,16.80
2023-05-05T11:11:11.396Z,16.80
2023-05-05T11:13:40.362Z,16.70
2023-05-05T11:16:45.767Z,16.60
2023-05-05T11:19:43.399Z,16.60
2023-05-05T11:22:10.789Z,16.60
2023-05-05T11:24:39.627Z,16.60
2023-05-05T11:27:07.619Z,16.50
2023-05-05T11:30:10.672Z,16.50
2023-05-05T11:32:37.726Z,16.40
2023-05-05T11:35:06.118Z,16.40
2023-05-05T11:37:34.267Z,16.40
2023-05-05T11:40:16.445Z,16.50
2023-05-05T11:42:43.267Z,16.50
2023-05-05T11:45:22.218Z,16.50
2023-05-05T11:47:49.114Z,16.50
2023-05-05T11:50:18.886Z,16.50
2023-05-05T11:52:47.043Z,16.60
2023-05-05T11:55:21.250Z,16.60
2023-05-05T11:57:48.390Z,16.60
2023-05-05T12:00:15.994Z,16.60
2023-05-05T12:02:42.924Z,16.50
2023-05-05T12:05:09.800Z,16.60
2023-05-05T12:07:36.729Z,16.60
2023-05-05T12:10:04.035Z,16.50
2023-05-05T12:12:39.265Z,16.50
2023-05-05T12:15:07.995Z,16.50
2023-05-05T12:17:40.852Z,16.60
2023-05-05T12:20:09.559Z,16.60
2023-05-05T12:22:37.253Z,16.60
2023-05-05T12:25:07.735Z,16.70
2023-05-05T12:27:38.463Z,16.60
2023-05-05T12:30:18.454Z,16.70
2023-05-05T12:32:45.922Z,16.70
2023-05-05T12:35:13.666Z,16.70
2023-05-05T12:37:41.676Z,16.60
2023-05-05T12:40:53.731Z,16.60
2023-05-05T12:43:32.928Z,16.60
2023-05-05T12:46:08.761Z,16.50
2023-05-05T12:48:40.593Z,16.60
2023-05-05T12:51:16.873Z,16.50
2023-05-05T12:53:45.760Z,16.50
2023-05-05T12:56:35.681Z,16.50
2023-05-05T12:59:11.255Z,16.50
2023-05-05T13:01:54.464Z,16.40
2023-05-05T13:04:23.958Z,16.40
2023-05-05T13:07:13.447Z,16.40
2023-05-05T13:09:40.366Z,16.40
2023-05-05T13:12:16.903Z,16.40
2023-05-05T13:14:44.219Z,16.40
2023-05-05T13:17:13.878Z,16.40
2023-05-05T13:19:46.205Z,16.30
2023-05-05T13:22:13.947Z,16.30
2023-05-05T13:24:50.563Z,16.30
2023-05-05T13:27:19.267Z,16.20
2023-05-05T13:29:46.101Z,16.30
2023-05-05T13:32:13.017Z,16.30
2023-05-05T13:34:40.062Z,16.20
2023-05-05T13:37:07.064Z,16.20
2023-05-05T13:39:34.016Z,16.10
2023-05-05T13:42:00.802Z,16.10
2023-05-05T13:44:27.685Z,16.00
2023-05-05T13:46:54.529Z,15.90
2023-05-05T13:49:21.385Z,15.80
2023-05-05T13:51:48.298Z,15.80
2023-05-05T13:54:15.180Z,15.80
2023-05-05T13:56:42.103Z,15.70
2023-05-05T13:59:09.196Z,15.80
2023-05-05T14:01:36.140Z,15.80
2023-05-05T14:04:05.366Z,15.80
2023-05-05T14:06:33.459Z,15.70
2023-05-05T14:09:00.557Z,15.70
2023-05-05T14:11:27.480Z,15.60
2023-05-05T14:13:54.303Z,15.50
2023-05-05T14:16:21.161Z,15.40
2023-05-05T14:18:48.021Z,15.50
2023-05-05T14:21:14.852Z,15.50
2023-05-05T14:23:41.796Z,15.50
2023-05-05T14:26:09.000Z,15.60
2023-05-05T14:28:36.240Z,15.60
2023-05-05T14:31:03.028Z,15.60
2023-05-05T14:33:29.849Z,15.60
2023-05-05T14:35:56.805Z,15.60
2023-05-05T14:38:23.658Z,15.80
2023-05-05T14:40:50.592Z,15.80
2023-05-05T14:43:17.442Z,16.00
2023-05-05T14:45:44.364Z,16.10
2023-05-05T14:48:11.264Z,16.20
2023-05-05T14:50:39.867Z,16.20
2023-05-05T14:53:06.715Z,16.20
2023-05-05T14:55:33.531Z,16.30
2023-05-05T14:58:00.351Z,16.40
2023-05-05T15:00:27.157Z,16.60
2023-05-05T15:02:54.042Z,16.60
2023-05-05T15:05:20.989Z,16.70
2023-05-05T15:07:47.867Z,16.60
2023-05-05T15:10:14.978Z,16.60
2023-05-05T15:12:42.749Z,16.60
2023-05-05T15:15:10.344Z,16.60
2023-05-05T15:17:38.628Z,16.60
2023-05-05T15:20:06.919Z,16.60
2023-05-05T15:22:33.930Z,16.70
2023-05-05T15:25:01.242Z,16.60
2023-05-05T15:27:28.244Z,16.50
2023-05-05T15:29:55.294Z,16.60
2023-05-05T15:32:22.356Z,16.70
2023-05-05T15:34:50.442Z,16.60
2023-05-05T15:37:17.465Z,16.70
2023-05-05T15:39:44.513Z,16.70
2023-05-05T15:42:11.319Z,16.70
2023-05-05T15:44:38.372Z,16.80
2023-05-05T15:47:06.909Z,16.80
2023-05-05T15:49:33.692Z,16.70
2023-05-05T15:52:00.675Z,16.80
2023-05-05T15:54:27.619Z,16.80
2023-05-05T15:56:54.967Z,16.90
2023-05-05T15:59:21.804Z,17.00
2023-05-05T16:01:48.747Z,17.00
2023-05-05T16:04:15.709Z,17.10
2023-05-05T16:06:42.704Z,17.20
2023-05-05T16:09:09.598Z,17.10
2023-05-05T16:11:37.369Z,17.00
2023-05-05T16:14:04.609Z,17.00
2023-05-05T16:16:31.483Z,16.90
2023-05-05T16:18:58.324Z,16.80
2023-05-05T16:21:25.588Z,16.90
2023-05-05T16:23:52.356Z,16.80
2023-05-05T16:26:19.660Z,16.80
2023-05-05T16:28:46.542Z,16.80
2023-05-05T16:31:13.549Z,16.80
2023-05-05T16:33:43.621Z,16.80
2023-05-05T16:36:12.386Z,16.90
2023-05-05T16:38:40.665Z,16.90
2023-05-05T16:41:08.184Z,16.90
2023-05-05T16:43:37.021Z,16.80
2023-05-05T16:46:04.302Z,16.80
2023-05-05T16:48:31.086Z,16.80
2023-05-05T16:50:58.153Z,16.90
2023-05-05T16:53:25.651Z,16.90
2023-05-05T16:55:53.505Z,16.80
2023-05-05T16:58:22.352Z,16.80
2023-05-05T17:00:50.224Z,16.80
2023-05-05T17:03:20.648Z,16.80
2023-05-05T17:05:50.129Z,16.80
2023-05-05T17:08:17.387Z,16.80
2023-05-05T17:10:45.545Z,16.70
2023-05-05T17:13:14.185Z,16.70
2023-05-05T17:15:41.911Z,16.70
2023-05-05T17:18:09.086Z,16.70
2023-05-05T17:20:36.357Z,16.60
2023-05-05T17:23:03.209Z,16.60
2023-05-05T17:25:30.187Z,16.60
2023-05-05T17:27:57.447Z,16.50
2023-05-05T17:30:24.345Z,16.50
2023-05-05T17:32:51.149Z,16.50
2023-05-05T17:35:18.205Z,16.50
2023-05-05T17:37:45.181Z,16.50
2023-05-05T17:40:12.177Z,16.50
2023-05-05T17:42:39.057Z,16.40
2023-05-05T17:45:06.745Z,16.40
2023-05-05T17:47:33.698Z,16.40
2023-05-05T17:50:00.646Z,16.40
2023-05-05T17:52:27.509Z,16.40
2023-05-05T17:54:54.343Z,16.40
2023-05-05T17:57:21.261Z,16.40
2023-05-05T17:59:50.022Z,16.40
2023-05-05T18:02:17.360Z,16.40
2023-05-05T18:04:44.402Z,16.40
2023-05-05T18:07:14.366Z,16.30
2023-05-05T18:09:42.067Z,16.30
2023-05-05T18:12:09.040Z,16.20
2023-05-05T18:14:36.173Z,16.20
2023-05-05T18:17:03.342Z,16.20
2023-05-05T18:19:30.686Z,16.20
2023-05-05T18:21:57.499Z,16.20
2023-05-05T18:24:24.425Z,16.10
2023-05-05T18:26:52.937Z,16.10
2023-05-05T18:29:21.740Z,16.00
2023-05-05T18:31:51.821Z,15.90
2023-05-05T18:34:20.402Z,15.90
2023-05-05T18:36:50.091Z,15.80
2023-05-05T18:39:17.673Z,15.70
2023-05-05T18:41:44.467Z,15.60
2023-05-05T18:44:11.723Z,15.60
2023-05-05T18:46:38.669Z,15.50
2023-05-05T18:49:05.724Z,15.40
2023-05-05T18:51:32.587Z,15.40
2023-05-05T18:54:00.788Z,15.30
2023-05-05T18:56:27.830Z,15.30
2023-05-05T18:58:54.620Z,15.20
2023-05-05T19:01:21.578Z,15.20
2023-05-05T19:03:48.731Z,15.10
2023-05-05T19:06:16.453Z,15.10
2023-05-05T19:08:45.552Z,15.10
2023-05-05T19:11:14.623Z,15.00
2023-05-05T19:13:41.930Z,14.90
2023-05-05T19:16:08.866Z,14.80
2023-05-05T19:18:35.716Z,14.80
2023-05-05T19:21:02.687Z,14.70
2023-05-05T19:23:29.555Z,14.70
2023-05-05T19:25:56.375Z,14.70
2023-05-05T19:28:23.251Z,14.60
2023-05-05T19:30:50.143Z,14.60
2023-05-05T19:33:16.992Z,14.50
2023-05-05T19:35:44.208Z,14.40
2023-05-05T19:38:11.069Z,14.40
2023-05-05T19:40:41.036Z,14.30
2023-05-05T19:43:08.145Z,14.30
2023-05-05T19:45:35.224Z,14.20
2023-05-05T19:48:02.543Z,14.20
2023-05-05T19:50:30.532Z,14.20
2023-05-05T19:52:57.966Z,14.20
2023-05-05T19:55:24.888Z,14.20
2023-05-05T19:57:51.757Z,14.10
2023-05-05T20:00:19.601Z,14.00
2023-05-05T20:02:47.182Z,14.00
2023-05-05T20:05:16.246Z,13.90
2023-05-05T20:07:45.045Z,13.90
2023-05-05T20:10:13.290Z,13.80
2023-05-05T20:12:47.520Z,13.80
2023-05-05T20:15:21.589Z,13.90
2023-05-05T20:17:49.309Z,13.80
2023-05-05T20:20:22.545Z,13.80
2023-05-05T20:22:49.769Z,13.70
2023-05-05T20:25:16.885Z,13.70
2023-05-05T20:27:45.187Z,13.70
2023-05-05T20:30:12.958Z,13.60
2023-05-05T20:32:41.433Z,13.60
2023-05-05T20:35:09.220Z,13.60
2023-05-05T20:37:36.035Z,13.60
2023-05-05T20:40:03.730Z,13.60
2023-05-05T20:42:30.557Z,13.50
2023-05-05T20:44:57.667Z,13.50
2023-05-05T20:47:24.699Z,13.40
2023-05-05T20:49:52.172Z,13.40
2023-05-05T20:52:19.072Z,13.30
2023-05-05T20:54:45.969Z,13.30
2023-05-05T20:57:12.778Z,13.30
2023-05-05T20:59:39.585Z,13.20
2023-05-05T21:02:06.394Z,13.20
2023-05-05T21:04:33.277Z,13.20
2023-05-05T21:07:00.042Z,13.20
2023-05-05T21:09:26.999Z,13.20
2023-05-05T21:11:53.797Z,13.20
2023-05-05T21:14:20.660Z,13.10
2023-05-05T21:16:48.127Z,13.10
2023-05-05T21:19:15.055Z,13.00
2023-05-05T21:21:42.005Z,13.00
2023-05-05T21:24:08.861Z,13.00
2023-05-05T21:26:35.786Z,13.00
2023-05-05T21:29:02.641Z,12.90
2023-05-05T21:31:29.506Z,12.90
2023-05-05T21:33:56.349Z,12.90
2023-05-05T21:36:23.213Z,12.90
2023-05-05T21:38:50.263Z,12.90
2023-05-05T21:41:17.036Z,12.80
2023-05-05T21:43:43.913Z,12.80
2023-05-05T21:46:10.970Z,12.80
2023-05-05T21:48:39.000Z,12.80
2023-05-05T21:51:06.668Z,12.70
2023-05-05T21:53:33.607Z,12.70
2023-05-05T21:56:01.238Z,12.60
2023-05-05T21:58:28.961Z,12.50
2023-05-05T22:00:55.883Z,12.60
2023-05-05T22:03:23.038Z,12.50
2023-05-05T22:05:49.983Z,12.50
2023-05-05T22:08:17.337Z,12.40
2023-05-05T22:10:44.237Z,12.40
2023-05-05T22:13:11.193Z,12.40
2023-05-05T22:15:46.057Z,12.40
2023-05-05T22:18:14.071Z,12.40
2023-05-05T22:20:41.075Z,12.40
2023-05-05T22:23:08.078Z,12.50
2023-05-05T22:25:35.400Z,12.50
2023-05-05T22:28:02.247Z,12.40
2023-05-05T22:30:29.300Z,12.30
2023-05-05T22:32:56.180Z,12.30
2023-05-05T22:35:23.146Z,12.40
2023-05-05T22:37:50.062Z,12.40
2023-05-05T22:40:17.034Z,12.40
2023-05-05T22:42:43.980Z,12.40
2023-05-05T22:45:11.829Z,12.40
2023-05-05T22:47:39.082Z,12.50
2023-05-05T22:50:07.723Z,12.50
2023-05-05T22:52:34.642Z,12.50
2023-05-05T22:55:01.506Z,12.50
2023-05-05T22:57:28.405Z,12.50
2023-05-05T22:59:55.327Z,12.50
2023-05-05T23:02:22.140Z,12.50
2023-05-05T23:04:48.945Z,12.50
2023-05-05T23:07:15.802Z,12.50
2023-05-05T23:09:42.596Z,12.50
2023-05-05T23:12:09.598Z,12.50
2023-05-05T23:14:36.516Z,12.50
2023-05-05T23:17:03.518Z,12.60
2023-05-05T23:19:32.407Z,12.60
2023-05-05T23:22:00.284Z,12.50
2023-05-05T23:24:28.662Z,12.50
2023-05-05T23:26:59.214Z,12.60
2023-05-05T23:29:26.345Z,12.60
2023-05-05T23:31:53.348Z,12.50
2023-05-05T23:34:20.213Z,12.60
2023-05-05T23:36:47.086Z,12.60
2023-05-05T23:39:14.002Z,12.60
2023-05-05T23:41:40.963Z,12.60
2023-05-05T23:44:07.799Z,12.70
2023-05-05T23:46:34.763Z,12.70
2023-05-05T23:49:01.721Z,12.70
2023-05-05T23:51:28.534Z,12.70
2023-05-05T23:53:57.338Z,12.80
2023-05-05T23:56:24.631Z,12.80
2023-05-05T23:58:52.943Z,12.80
